Time;durP1;ratioP1;P1;durP2;ratioP2;P2;SDS_P1;SDS_P2;PMS_P1;PMS_P2;Temp;Humidity;BMP_temperature;BMP_pressure;BME280_temperature;BME280_humidity;BME280_pressure;Samples;Min_cycle;Max_cycle;Signal;HPM_P1;HPM_P2
2023/04/15 00:00:58;;;;;;;8.40;4.85;;;12.30;53.10;;;;;;5042242;28;20116;-74
2023/04/15 00:03:24;;;;;;;8.68;4.30;;;12.20;53.10;;;;;;5044514;28;20025;-74
2023/04/15 00:05:50;;;;;;;10.18;4.25;;;12.20;53.20;;;;;;5037725;28;20350;-75
2023/04/15 00:08:17;;;;;;;9.40;4.43;;;12.20;53.20;;;;;;5020469;28;20045;-74
2023/04/15 00:10:45;;;;;;;9.45;4.75;;;12.20;53.30;;;;;;5035100;28;20025;-74
2023/04/15 00:13:11;;;;;;;7.40;4.55;;;12.10;53.40;;;;;;5020142;28;20099;-75
2023/04/15 00:15:37;;;;;;;8.63;4.90;;;12.10;53.50;;;;;;5018184;28;20033;-75
2023/04/15 00:18:03;;;;;;;10.07;4.45;;;12.10;53.70;;;;;;5032557;28;20468;-75
2023/04/15 00:20:29;;;;;;;8.95;4.20;;;12.10;53.80;;;;;;5040390;28;20121;-74
2023/04/15 00:22:55;;;;;;;8.55;4.32;;;12.10;53.80;;;;;;5026201;28;20017;-74
2023/04/15 00:25:21;;;;;;;9.85;4.78;;;12.10;53.80;;;;;;5041252;28;20053;-75
2023/04/15 00:27:46;;;;;;;9.65;4.60;;;12.10;53.80;;;;;;5035583;28;20017;-75
2023/04/15 00:30:14;;;;;;;9.88;4.10;;;12.10;53.90;;;;;;5035033;28;20097;-75
2023/04/15 00:32:41;;;;;;;9.60;4.40;;;12.10;54.00;;;;;;5036418;28;20036;-75
2023/04/15 00:35:07;;;;;;;9.65;4.78;;;12.00;54.10;;;;;;5041058;28;20017;-75
2023/04/15 00:37:34;;;;;;;8.07;4.05;;;12.00;54.20;;;;;;5033747;28;20455;-75
2023/04/15 00:40:00;;;;;;;10.45;3.95;;;12.00;54.30;;;;;;5032219;28;20032;-74
2023/04/15 00:42:27;;;;;;;7.60;4.00;;;12.00;54.40;;;;;;5037265;28;20032;-74
2023/04/15 00:44:53;;;;;;;8.30;4.03;;;11.90;54.40;;;;;;5039368;28;20057;-74
2023/04/15 00:47:21;;;;;;;8.15;4.20;;;11.90;54.50;;;;;;5039587;28;20025;-74
2023/04/15 00:49:47;;;;;;;8.00;3.83;;;11.90;54.60;;;;;;5033893;28;20033;-74
2023/04/15 00:52:13;;;;;;;7.93;3.95;;;11.90;54.70;;;;;;5042009;28;20028;-74
2023/04/15 00:54:39;;;;;;;8.35;3.78;;;11.90;54.70;;;;;;5046191;28;20044;-75
2023/04/15 00:57:06;;;;;;;8.02;3.70;;;11.90;54.80;;;;;;5041890;28;20335;-75
2023/04/15 00:59:33;;;;;;;8.80;4.57;;;11.90;54.90;;;;;;5037815;28;20029;-75
2023/04/15 01:02:00;;;;;;;8.18;4.35;;;11.90;55.00;;;;;;5040948;28;20025;-74
2023/04/15 01:04:26;;;;;;;9.98;3.85;;;11.90;55.20;;;;;;5042350;28;20334;-75
2023/04/15 01:06:52;;;;;;;8.95;3.95;;;11.90;55.30;;;;;;5027026;28;20056;-74
2023/04/15 01:09:18;;;;;;;7.60;3.63;;;11.90;55.30;;;;;;5038944;28;20462;-74
2023/04/15 01:11:44;;;;;;;8.27;4.07;;;11.90;55.40;;;;;;5022559;28;20029;-74
2023/04/15 01:14:10;;;;;;;8.77;4.95;;;11.80;55.40;;;;;;5035684;28;20061;-74
2023/04/15 01:16:38;;;;;;;8.13;3.67;;;11.80;55.50;;;;;;5039234;28;20021;-75
2023/04/15 01:19:09;;;;;;;9.05;4.25;;;11.80;55.60;;;;;;5037019;28;20030;-75
2023/04/15 01:21:38;;;;;;;9.15;4.28;;;11.80;55.70;;;;;;5038715;28;20029;-74
2023/04/15 01:24:12;;;;;;;8.50;4.15;;;11.80;55.90;;;;;;5035125;28;20437;-74
2023/04/15 01:26:39;;;;;;;8.15;3.55;;;11.80;56.00;;;;;;5038300;28;20029;-75
2023/04/15 01:29:07;;;;;;;8.50;4.82;;;11.80;56.00;;;;;;5035645;28;20048;-75
2023/04/15 01:31:33;;;;;;;9.35;4.65;;;11.80;56.10;;;;;;5038470;28;20030;-74
2023/04/15 01:33:59;;;;;;;7.70;4.25;;;11.70;56.20;;;;;;5042880;28;20316;-74
2023/04/15 01:36:25;;;;;;;9.57;3.70;;;11.80;56.30;;;;;;5045864;28;20167;-74
2023/04/15 01:38:53;;;;;;;8.70;4.72;;;11.70;56.30;;;;;;5033805;28;20016;-74
2023/04/15 01:41:27;;;;;;;6.97;3.95;;;11.70;56.50;;;;;;5040298;28;20128;-74
2023/04/15 01:43:54;;;;;;;7.88;4.32;;;11.70;56.60;;;;;;5038540;28;20028;-74
2023/04/15 01:46:19;;;;;;;7.18;3.97;;;11.70;56.70;;;;;;5053332;28;20025;-73
2023/04/15 01:48:46;;;;;;;9.13;4.57;;;11.70;56.80;;;;;;5025420;28;20026;-73
2023/04/15 01:51:11;;;;;;;11.95;4.40;;;11.70;56.80;;;;;;5034916;28;20037;-75
2023/04/15 01:53:37;;;;;;;9.05;4.00;;;11.70;56.90;;;;;;5034700;28;20112;-74
2023/04/15 01:56:03;;;;;;;9.95;4.97;;;11.70;56.90;;;;;;5045038;28;20017;-74
2023/04/15 01:58:30;;;;;;;8.50;4.85;;;11.70;57.00;;;;;;5029474;28;20022;-74
2023/04/15 02:00:56;;;;;;;10.07;4.70;;;11.70;57.10;;;;;;5022992;28;20438;-74
2023/04/15 02:03:23;;;;;;;9.57;4.43;;;11.70;57.10;;;;;;5015752;28;20037;-74
2023/04/15 02:05:51;;;;;;;8.88;4.78;;;11.70;57.30;;;;;;5044686;28;20089;-74
2023/04/15 02:08:17;;;;;;;8.45;4.50;;;11.70;57.30;;;;;;5032477;28;20041;-74
2023/04/15 02:10:42;;;;;;;8.60;4.60;;;11.60;57.30;;;;;;5031447;28;20461;-74
2023/04/15 02:13:09;;;;;;;8.77;4.72;;;11.60;57.40;;;;;;5039471;28;20365;-74
2023/04/15 02:15:35;;;;;;;8.77;4.43;;;11.60;57.50;;;;;;5039212;28;20366;-73
2023/04/15 02:18:01;;;;;;;8.68;4.70;;;11.60;57.60;;;;;;5032111;28;20029;-74
2023/04/15 02:20:29;;;;;;;9.18;4.60;;;11.60;57.60;;;;;;5031346;28;20040;-74
2023/04/15 02:22:57;;;;;;;9.80;4.40;;;11.60;57.60;;;;;;5042180;28;20017;-74
2023/04/15 02:25:22;;;;;;;8.73;4.40;;;11.60;57.70;;;;;;5043701;28;20123;-74
2023/04/15 02:27:48;;;;;;;7.63;4.47;;;11.50;57.80;;;;;;5040145;28;20033;-74
2023/04/15 02:30:15;;;;;;;8.57;4.68;;;11.50;57.90;;;;;;5036159;28;20040;-73
2023/04/15 02:32:43;;;;;;;8.55;4.43;;;11.50;58.00;;;;;;5022299;28;20455;-74
2023/04/15 02:35:09;;;;;;;8.48;4.35;;;11.50;58.10;;;;;;5049097;28;20694;-73
2023/04/15 02:37:40;;;;;;;8.15;4.80;;;11.50;58.20;;;;;;5031287;28;20168;-74
2023/04/15 02:40:10;;;;;;;9.18;5.00;;;11.50;58.30;;;;;;5046242;28;20021;-74
2023/04/15 02:42:37;;;;;;;8.40;4.20;;;11.50;58.30;;;;;;5017125;28;20026;-74
2023/04/15 02:45:03;;;;;;;9.68;4.90;;;11.50;58.40;;;;;;5034046;28;20078;-74
2023/04/15 02:47:33;;;;;;;8.25;4.68;;;11.40;58.40;;;;;;5043582;28;20082;-74
2023/04/15 02:50:00;;;;;;;9.57;4.78;;;11.40;58.40;;;;;;5035765;28;20448;-74
2023/04/15 02:52:27;;;;;;;7.78;4.60;;;11.50;58.50;;;;;;5034776;28;20064;-74
2023/04/15 02:54:59;;;;;;;9.77;4.47;;;11.50;58.50;;;;;;5029785;28;20029;-74
2023/04/15 02:57:30;;;;;;;;;;;11.40;58.40;;;;;;5026626;28;20082;-74
2023/04/15 03:00:00;;;;;;;8.20;4.05;;;11.40;58.40;;;;;;5031708;28;20210;-74
2023/04/15 03:02:26;;;;;;;9.23;4.50;;;11.40;58.50;;;;;;5028057;28;20029;-74
2023/04/15 03:04:53;;;;;;;7.53;4.15;;;11.40;58.60;;;;;;5016146;28;20118;-74
2023/04/15 03:07:19;;;;;;;11.32;5.32;;;11.40;58.60;;;;;;5031892;28;20099;-74
2023/04/15 03:09:46;;;;;;;9.07;4.22;;;11.40;58.70;;;;;;5030510;28;20025;-74
2023/04/15 03:12:12;;;;;;;8.05;4.13;;;11.40;58.90;;;;;;5029636;28;20397;-74
2023/04/15 03:14:38;;;;;;;10.85;5.43;;;11.40;59.00;;;;;;5018069;28;20030;-74
2023/04/15 03:17:05;;;;;;;9.48;4.63;;;11.40;59.00;;;;;;5021677;28;20037;-74
2023/04/15 03:19:32;;;;;;;11.25;5.45;;;11.30;59.10;;;;;;5018250;28;20038;-74
2023/04/15 03:21:58;;;;;;;9.10;4.82;;;11.30;59.10;;;;;;5002816;28;20026;-74
2023/04/15 03:24:24;;;;;;;7.75;4.72;;;11.30;59.20;;;;;;5020518;28;20022;-74
2023/04/15 03:26:50;;;;;;;9.55;5.40;;;11.30;59.30;;;;;;5026191;28;20438;-74
2023/04/15 03:29:16;;;;;;;10.23;5.30;;;11.30;59.40;;;;;;5001167;28;20022;-74
2023/04/15 03:31:42;;;;;;;8.45;4.65;;;11.20;59.50;;;;;;5018747;28;20025;-74
2023/04/15 03:34:08;;;;;;;8.68;5.35;;;11.30;59.60;;;;;;5024062;28;20105;-74
2023/04/15 03:36:35;;;;;;;9.60;5.68;;;11.20;59.60;;;;;;5006776;28;20365;-74
2023/04/15 03:39:03;;;;;;;12.10;5.72;;;11.20;60.40;;;;;;5014195;28;20026;-74
2023/04/15 03:41:28;;;;;;;9.13;5.18;;;11.20;59.80;;;;;;5004546;28;20048;-74
2023/04/15 03:43:54;;;;;;;10.32;5.38;;;11.20;59.90;;;;;;5020539;28;20483;-74
2023/04/15 03:46:20;;;;;;;8.60;5.03;;;11.20;60.00;;;;;;5017536;28;20032;-74
2023/04/15 03:48:47;;;;;;;11.35;5.30;;;11.20;60.10;;;;;;5025897;28;20026;-74
2023/04/15 03:51:12;;;;;;;8.65;5.25;;;11.10;60.10;;;;;;5020546;28;20041;-74
2023/04/15 03:53:38;;;;;;;8.40;4.88;;;11.10;60.20;;;;;;5025467;28;20033;-74
2023/04/15 03:56:04;;;;;;;8.35;5.22;;;11.10;60.30;;;;;;5019847;28;20060;-74
2023/04/15 03:58:30;;;;;;;10.75;5.55;;;11.10;60.40;;;;;;5013692;28;20060;-74
2023/04/15 04:00:56;;;;;;;9.85;5.45;;;11.10;60.50;;;;;;5016723;28;20088;-74
2023/04/15 04:03:22;;;;;;;11.82;5.82;;;11.10;60.60;;;;;;5022884;28;20029;-74
2023/04/15 04:05:49;;;;;;;8.73;5.10;;;11.00;60.60;;;;;;5021382;28;20033;-74
2023/04/15 04:08:15;;;;;;;10.18;5.15;;;11.00;60.80;;;;;;5025341;28;20057;-74
2023/04/15 04:10:41;;;;;;;7.70;4.68;;;11.00;60.80;;;;;;5023485;28;20415;-74
2023/04/15 04:13:07;;;;;;;9.88;5.13;;;11.00;60.90;;;;;;5023744;28;20029;-74
2023/04/15 04:15:33;;;;;;;8.65;4.80;;;10.90;60.90;;;;;;5023215;28;20065;-74
2023/04/15 04:17:59;;;;;;;10.70;5.65;;;11.00;61.00;;;;;;5004604;28;20561;-74
2023/04/15 04:20:25;;;;;;;11.50;5.72;;;10.90;61.10;;;;;;5016590;28;20372;-74
2023/04/15 04:22:51;;;;;;;10.10;5.28;;;10.90;61.20;;;;;;5022526;28;20022;-74
2023/04/15 04:25:16;;;;;;;10.13;5.40;;;10.90;61.20;;;;;;5021149;28;20034;-73
2023/04/15 04:27:44;;;;;;;9.27;5.50;;;10.90;61.30;;;;;;5031192;28;20017;-74
2023/04/15 04:30:10;;;;;;;9.25;5.53;;;10.80;61.40;;;;;;5022499;28;20149;-74
2023/04/15 04:32:36;;;;;;;9.95;5.72;;;10.90;61.50;;;;;;5017469;28;20025;-74
2023/04/15 04:35:03;;;;;;;8.48;5.30;;;10.90;61.60;;;;;;5013451;28;20033;-74
2023/04/15 04:37:29;;;;;;;9.85;5.30;;;10.80;61.60;;;;;;5020581;28;20030;-74
2023/04/15 04:39:55;;;;;;;9.40;5.68;;;10.80;61.80;;;;;;5016520;28;20052;-74
2023/04/15 04:42:21;;;;;;;9.55;5.78;;;10.80;61.90;;;;;;5020850;28;20033;-74
2023/04/15 04:44:47;;;;;;;12.52;6.25;;;10.80;62.00;;;;;;5022121;28;21119;-74
2023/04/15 04:47:13;;;;;;;9.20;5.93;;;10.80;62.00;;;;;;5017837;28;20045;-74
2023/04/15 04:49:39;;;;;;;10.93;6.07;;;10.70;62.10;;;;;;5005459;28;20022;-74
2023/04/15 04:52:06;;;;;;;11.07;5.82;;;10.70;62.10;;;;;;5021696;28;20100;-74
2023/04/15 04:54:32;;;;;;;10.77;6.22;;;10.80;62.30;;;;;;5022666;28;20029;-74
2023/04/15 04:56:57;;;;;;;10.57;6.88;;;10.70;62.30;;;;;;5020024;28;20029;-74
2023/04/15 04:59:23;;;;;;;10.70;5.65;;;10.70;62.30;;;;;;5017980;28;20022;-74
2023/04/15 05:01:49;;;;;;;10.45;5.93;;;10.70;62.40;;;;;;5018118;28;20014;-74
2023/04/15 05:04:15;;;;;;;9.77;5.85;;;10.70;62.50;;;;;;5023671;28;20323;-75
2023/04/15 05:06:41;;;;;;;11.32;6.15;;;10.70;62.50;;;;;;5030979;28;20041;-74
2023/04/15 05:09:06;;;;;;;9.63;5.75;;;10.70;62.60;;;;;;5035136;28;20366;-74
2023/04/15 05:11:32;;;;;;;10.35;6.32;;;10.70;62.70;;;;;;5014604;28;20391;-74
2023/04/15 05:14:01;;;;;;;11.25;6.50;;;10.70;62.70;;;;;;5034909;28;20021;-74
2023/04/15 05:16:27;;;;;;;10.50;6.40;;;10.70;62.80;;;;;;5033275;28;20039;-74
2023/04/15 05:18:53;;;;;;;11.35;7.00;;;10.70;62.80;;;;;;5034345;28;20025;-74
2023/04/15 05:21:19;;;;;;;9.05;5.88;;;10.70;62.80;;;;;;5032984;28;20132;-73
2023/04/15 05:23:45;;;;;;;10.73;6.55;;;10.80;62.90;;;;;;5034860;28;20154;-74
2023/04/15 05:26:11;;;;;;;11.00;6.57;;;10.80;63.00;;;;;;5031471;28;20030;-74
2023/04/15 05:28:37;;;;;;;10.82;6.57;;;10.80;63.00;;;;;;5017363;28;20113;-73
2023/04/15 05:31:03;;;;;;;9.88;5.90;;;10.80;63.10;;;;;;5032869;28;20424;-74
2023/04/15 05:33:28;;;;;;;9.63;6.65;;;10.80;63.20;;;;;;5034175;28;20035;-78
2023/04/15 05:35:54;;;;;;;12.15;6.65;;;10.80;63.20;;;;;;5037142;28;20065;-70
2023/04/15 05:38:20;;;;;;;11.48;6.60;;;10.80;63.30;;;;;;5038126;28;20040;-70
2023/04/15 05:40:46;;;;;;;10.70;6.88;;;10.80;63.40;;;;;;5033164;28;20053;-70
2023/04/15 05:43:13;;;;;;;10.23;6.53;;;10.90;63.50;;;;;;5039138;28;20498;-70
2023/04/15 05:45:38;;;;;;;9.98;6.07;;;11.00;63.50;;;;;;5051223;28;20056;-70
2023/04/15 05:48:04;;;;;;;10.65;6.97;;;11.20;63.30;;;;;;5048422;28;20053;-70
2023/04/15 05:50:30;;;;;;;10.95;6.75;;;11.40;63.00;;;;;;5049797;28;20028;-70
2023/04/15 05:52:56;;;;;;;11.85;6.47;;;11.70;62.60;;;;;;5053709;28;20110;-70
2023/04/15 05:55:22;;;;;;;10.63;6.15;;;12.00;61.90;;;;;;5053671;28;20036;-70
2023/04/15 05:57:47;;;;;;;10.32;6.43;;;12.30;61.50;;;;;;5045037;28;20040;-70
2023/04/15 06:00:14;;;;;;;9.75;6.18;;;12.50;61.10;;;;;;5037208;28;20034;-70
2023/04/15 06:02:40;;;;;;;11.00;6.00;;;12.90;60.60;;;;;;5043132;28;20378;-70
2023/04/15 06:05:08;;;;;;;10.27;6.43;;;13.20;59.90;;;;;;5033989;28;20100;-71
2023/04/15 06:07:37;;;;;;;9.63;6.10;;;13.40;59.60;;;;;;5043072;28;20037;-70
2023/04/15 06:10:03;;;;;;;12.10;7.45;;;13.40;59.40;;;;;;5048682;28;20030;-70
2023/04/15 06:12:29;;;;;;;9.45;6.05;;;13.40;59.40;;;;;;5036755;28;20392;-70
2023/04/15 06:14:55;;;;;;;9.50;6.10;;;13.40;59.40;;;;;;5034161;28;20128;-70
2023/04/15 06:17:21;;;;;;;9.60;6.35;;;13.50;59.50;;;;;;5036666;28;20401;-70
2023/04/15 06:19:47;;;;;;;9.85;6.20;;;13.60;59.30;;;;;;5035201;28;20041;-70
2023/04/15 06:22:13;;;;;;;9.05;5.80;;;13.70;58.90;;;;;;5041312;28;20026;-70
2023/04/15 06:24:39;;;;;;;11.38;6.88;;;13.80;58.90;;;;;;5049479;28;20036;-70
2023/04/15 06:27:06;;;;;;;10.57;6.57;;;13.70;58.90;;;;;;5040279;28;20020;-69
2023/04/15 06:29:32;;;;;;;13.15;6.63;;;13.70;59.10;;;;;;5043586;28;20029;-69
2023/04/15 06:31:57;;;;;;;11.52;7.22;;;13.60;59.30;;;;;;5033418;28;20021;-69
2023/04/15 06:34:23;;;;;;;9.43;5.97;;;13.50;59.50;;;;;;5029910;28;20029;-69
2023/04/15 06:36:50;;;;;;;12.55;6.47;;;13.40;59.70;;;;;;5033461;28;20507;-69
2023/04/15 06:39:16;;;;;;;10.77;6.75;;;13.30;60.00;;;;;;5030820;28;20069;-68
2023/04/15 06:41:41;;;;;;;10.43;6.30;;;13.20;60.20;;;;;;5045273;28;20056;-68
2023/04/15 06:44:07;;;;;;;9.75;5.97;;;13.10;60.40;;;;;;5035707;28;20029;-68
2023/04/15 06:46:33;;;;;;;10.48;5.72;;;13.00;60.40;;;;;;5031049;28;20036;-68
2023/04/15 06:48:59;;;;;;;10.55;6.15;;;13.00;60.50;;;;;;5028163;28;20086;-68
2023/04/15 06:51:25;;;;;;;9.20;5.60;;;12.90;60.40;;;;;;5033607;28;20040;-66
2023/04/15 06:53:51;;;;;;;9.98;6.22;;;12.80;60.30;;;;;;5031237;28;20053;-66
2023/04/15 06:56:17;;;;;;;11.63;6.65;;;12.70;60.30;;;;;;5049599;28;20419;-68
2023/04/15 06:58:42;;;;;;;11.07;6.90;;;12.70;60.30;;;;;;5041908;28;20465;-68
2023/04/15 07:01:08;;;;;;;11.65;6.40;;;12.60;60.30;;;;;;5052652;28;20033;-68
2023/04/15 07:03:34;;;;;;;10.48;6.65;;;12.60;60.40;;;;;;5041130;28;20021;-66
2023/04/15 07:06:00;;;;;;;11.90;6.25;;;12.50;60.40;;;;;;5037362;28;20033;-64
2023/04/15 07:08:26;;;;;;;10.85;6.30;;;12.50;60.50;;;;;;5039157;28;20162;-69
2023/04/15 07:10:52;;;;;;;12.20;7.75;;;12.40;60.50;;;;;;5053039;28;20060;-68
2023/04/15 07:13:18;;;;;;;10.20;6.43;;;12.40;60.60;;;;;;5032851;28;20039;-67
2023/04/15 07:15:44;;;;;;;9.73;6.18;;;12.40;60.60;;;;;;5043391;28;20074;-68
2023/04/15 07:18:10;;;;;;;11.20;6.53;;;12.40;60.60;;;;;;5041596;28;20120;-67
2023/04/15 07:20:36;;;;;;;11.65;6.45;;;12.40;60.60;;;;;;5040578;28;20028;-68
2023/04/15 07:23:02;;;;;;;11.40;5.95;;;12.40;60.70;;;;;;5047347;28;20461;-67
2023/04/15 07:25:28;;;;;;;10.10;5.75;;;12.40;60.70;;;;;;5055125;28;20025;-67
2023/04/15 07:27:53;;;;;;;10.38;5.93;;;12.30;60.60;;;;;;5047133;28;20549;-68
2023/04/15 07:30:19;;;;;;;9.70;6.15;;;12.40;60.70;;;;;;5050890;28;20036;-67
2023/04/15 07:32:45;;;;;;;9.63;5.65;;;12.40;60.70;;;;;;5045291;28;20299;-66
2023/04/15 07:35:11;;;;;;;11.95;5.95;;;12.40;60.70;;;;;;5039737;28;20123;-68
2023/04/15 07:37:37;;;;;;;10.30;6.65;;;12.40;60.60;;;;;;5049927;28;20065;-71
2023/04/15 07:40:03;;;;;;;11.07;6.32;;;12.40;60.60;;;;;;5046238;28;20379;-69
2023/04/15 07:42:29;;;;;;;11.13;6.13;;;12.40;60.60;;;;;;5056348;28;20078;-66
2023/04/15 07:44:56;;;;;;;11.40;6.38;;;12.40;60.60;;;;;;5042219;28;20116;-66
2023/04/15 07:47:21;;;;;;;12.15;7.03;;;12.50;60.60;;;;;;5057055;28;20037;-68
2023/04/15 07:49:48;;;;;;;11.35;7.13;;;12.50;60.50;;;;;;5051706;28;20040;-66
2023/04/15 07:52:13;;;;;;;11.20;5.88;;;12.60;60.40;;;;;;5057158;28;20048;-67
2023/04/15 07:54:39;;;;;;;10.43;6.35;;;12.60;60.30;;;;;;5041751;28;20029;-69
2023/04/15 07:57:05;;;;;;;11.52;6.20;;;12.70;60.30;;;;;;5054344;28;20065;-69
2023/04/15 07:59:32;;;;;;;9.90;5.55;;;12.80;60.20;;;;;;5043780;28;20061;-68
2023/04/15 08:01:58;;;;;;;9.40;5.57;;;12.90;60.00;;;;;;5047221;28;20434;-69
2023/04/15 08:04:24;;;;;;;9.90;6.13;;;13.00;59.90;;;;;;5040249;28;20423;-67
2023/04/15 08:06:51;;;;;;;9.15;5.35;;;13.20;59.70;;;;;;5039297;28;20025;-68
2023/04/15 08:09:17;;;;;;;9.85;4.82;;;13.30;59.50;;;;;;5049743;28;20032;-67
2023/04/15 08:11:44;;;;;;;8.65;4.97;;;13.40;59.20;;;;;;5042701;28;20027;-71
2023/04/15 08:14:10;;;;;;;9.02;5.05;;;13.50;58.90;;;;;;5051923;28;20033;-70
2023/04/15 08:16:36;;;;;;;9.55;4.82;;;13.60;58.70;;;;;;5034444;28;20013;-71
2023/04/15 08:19:02;;;;;;;9.63;5.22;;;13.60;58.60;;;;;;5036150;28;20147;-69
2023/04/15 08:21:29;;;;;;;8.02;4.35;;;13.70;58.40;;;;;;5026985;28;20087;-71
2023/04/15 08:23:55;;;;;;;7.88;4.32;;;13.70;58.30;;;;;;5034453;28;20064;-70
2023/04/15 08:26:21;;;;;;;9.07;4.20;;;13.70;58.20;;;;;;5033544;28;20427;-67
2023/04/15 08:28:48;;;;;;;7.03;3.92;;;13.70;58.10;;;;;;5035767;28;20032;-66
2023/04/15 08:31:15;;;;;;;7.28;4.10;;;13.70;58.00;;;;;;5032497;28;20029;-65
2023/04/15 08:33:42;;;;;;;8.18;4.47;;;13.80;57.90;;;;;;5033236;28;20037;-64
2023/04/15 08:36:08;;;;;;;7.15;3.05;;;13.80;57.70;;;;;;5034937;28;20337;-65
2023/04/15 08:38:34;;;;;;;7.45;3.80;;;13.90;57.60;;;;;;5036722;28;20030;-65
2023/04/15 08:41:17;;;;;;;7.82;3.55;;;13.90;57.40;;;;;;5035070;28;20065;-65
2023/04/15 08:44:06;;;;;;;7.13;3.35;;;14.00;57.30;;;;;;5024945;28;20035;-65
2023/04/15 08:46:35;;;;;;;5.95;2.95;;;14.10;57.10;;;;;;5040993;28;20132;-65
2023/04/15 08:49:03;;;;;;;6.38;3.22;;;14.10;57.10;;;;;;5035538;28;20028;-64
2023/04/15 08:51:30;;;;;;;6.43;2.90;;;14.10;56.90;;;;;;5035223;28;20029;-65
2023/04/15 08:53:56;;;;;;;6.78;3.20;;;14.20;56.90;;;;;;5039757;28;20045;-65
2023/04/15 08:56:27;;;;;;;7.60;3.30;;;14.20;56.80;;;;;;5039457;28;20029;-64
2023/04/15 08:58:53;;;;;;;5.88;3.15;;;14.20;56.80;;;;;;5037650;28;20458;-65
2023/04/15 09:01:19;;;;;;;5.78;2.97;;;14.20;56.90;;;;;;5036862;28;20078;-64
2023/04/15 09:03:49;;;;;;;6.30;3.55;;;14.10;56.80;;;;;;5031626;28;20530;-64
2023/04/15 09:06:16;;;;;;;6.80;3.13;;;14.10;56.80;;;;;;5038604;28;20099;-64
2023/04/15 09:08:43;;;;;;;6.57;3.50;;;14.10;56.80;;;;;;5037146;28;20076;-64
2023/04/15 09:11:10;;;;;;;7.32;2.90;;;14.10;56.80;;;;;;5049267;28;20033;-64
2023/04/15 09:13:35;;;;;;;6.55;3.00;;;14.10;56.80;;;;;;5046304;28;20694;-65
2023/04/15 09:16:03;;;;;;;6.70;3.55;;;14.20;56.80;;;;;;5034209;28;20017;-64
2023/04/15 09:18:36;;;;;;;7.22;3.35;;;14.30;56.90;;;;;;5039310;28;20087;-64
2023/04/15 09:21:13;;;;;;;6.22;3.20;;;14.40;56.70;;;;;;5046312;28;20040;-64
2023/04/15 09:24:00;;;;;;;8.63;3.35;;;14.40;56.50;;;;;;5044380;28;20017;-65
2023/04/15 09:26:31;;;;;;;6.88;3.38;;;14.50;56.50;;;;;;5044638;28;20152;-65
2023/04/15 09:29:08;;;;;;;7.57;3.40;;;14.60;56.40;;;;;;5033573;28;20069;-65
2023/04/15 09:31:35;;;;;;;5.60;2.70;;;14.70;56.20;;;;;;5054074;28;20060;-65
2023/04/15 09:34:01;;;;;;;6.65;3.13;;;14.90;56.10;;;;;;5038991;28;20025;-65
2023/04/15 09:36:30;;;;;;;7.30;3.13;;;15.10;56.00;;;;;;5042544;28;20021;-64
2023/04/15 09:38:58;;;;;;;6.32;2.85;;;15.30;55.70;;;;;;5043058;28;20025;-65
2023/04/15 09:41:25;;;;;;;7.03;3.42;;;15.50;55.40;;;;;;5037179;28;20030;-64
2023/04/15 09:43:51;;;;;;;7.40;3.10;;;15.50;55.20;;;;;;5038505;28;20022;-65
2023/04/15 09:46:16;;;;;;;6.22;3.00;;;15.60;55.10;;;;;;5035765;28;20395;-65
2023/04/15 09:48:42;;;;;;;6.88;2.92;;;15.70;55.00;;;;;;5032721;28;20055;-65
2023/04/15 09:51:08;;;;;;;6.20;2.92;;;15.70;54.80;;;;;;5037342;28;20371;-66
2023/04/15 09:53:35;;;;;;;5.57;2.90;;;15.70;54.60;;;;;;5041702;28;20097;-65
2023/04/15 09:56:01;;;;;;;6.25;2.88;;;15.80;54.50;;;;;;5033380;28;20052;-65
2023/04/15 09:58:29;;;;;;;5.78;2.33;;;15.80;54.60;;;;;;5030904;28;20171;-64
2023/04/15 10:00:57;;;;;;;5.88;2.80;;;15.80;54.50;;;;;;5027972;28;20411;-64
2023/04/15 10:03:35;;;;;;;6.03;2.92;;;15.90;54.50;;;;;;5033171;28;20055;-65
2023/04/15 10:06:02;;;;;;;6.45;2.95;;;16.00;54.30;;;;;;5033044;28;20048;-65
2023/04/15 10:08:30;;;;;;;5.60;2.63;;;16.20;54.00;;;;;;5034241;28;20363;-65
2023/04/15 10:10:56;;;;;;;5.65;2.92;;;16.40;53.60;;;;;;5032605;28;20091;-67
2023/04/15 10:13:25;;;;;;;6.55;3.30;;;16.50;53.20;;;;;;5032084;28;20455;-66
2023/04/15 10:16:11;;;;;;;6.43;2.70;;;16.70;53.00;;;;;;5032307;28;20025;-66
2023/04/15 10:18:50;;;;;;;6.65;2.85;;;16.90;52.70;;;;;;5031795;28;20025;-67
2023/04/15 10:21:17;;;;;;;5.80;2.53;;;17.10;52.60;;;;;;5030841;28;20408;-67
2023/04/15 10:23:46;;;;;;;6.35;3.03;;;17.30;52.40;;;;;;5032096;28;20028;-68
2023/04/15 10:26:13;;;;;;;6.20;2.50;;;17.50;52.00;;;;;;5032529;28;20037;-67
2023/04/15 10:28:40;;;;;;;5.10;2.22;;;17.60;51.80;;;;;;5031402;28;20104;-67
2023/04/15 10:31:06;;;;;;;5.63;2.67;;;17.60;51.60;;;;;;5032453;28;20025;-67
2023/04/15 10:33:33;;;;;;;5.55;2.60;;;17.60;52.10;;;;;;5031274;28;20021;-67
2023/04/15 10:36:00;;;;;;;7.25;2.53;;;17.50;51.30;;;;;;5030132;28;20401;-67
2023/04/15 10:38:38;;;;;;;5.85;2.80;;;17.30;51.30;;;;;;5034921;28;20035;-67
2023/04/15 10:41:20;;;;;;;5.40;2.80;;;17.20;51.40;;;;;;5030393;28;20159;-67
2023/04/15 10:43:51;;;;;;;5.35;2.22;;;17.00;51.50;;;;;;5030958;28;20374;-67
2023/04/15 10:46:38;;;;;;;6.35;2.40;;;17.00;51.70;;;;;;5033768;28;20540;-67
2023/04/15 10:49:15;;;;;;;5.32;2.40;;;17.00;51.80;;;;;;5031983;28;20060;-67
2023/04/15 10:51:43;;;;;;;6.25;2.40;;;17.10;51.60;;;;;;5031288;28;20085;-67
2023/04/15 10:54:14;;;;;;;5.90;2.38;;;17.20;51.50;;;;;;5028488;28;20175;-67
2023/04/15 10:56:44;;;;;;;5.50;2.40;;;17.30;51.50;;;;;;5035223;28;20029;-67
2023/04/15 10:59:10;;;;;;;5.78;2.50;;;17.20;51.40;;;;;;5033703;28;20103;-67
2023/04/15 11:01:55;;;;;;;6.18;2.40;;;17.10;51.50;;;;;;5033911;28;20041;-67
2023/04/15 11:04:58;;;;;;;5.65;2.53;;;16.90;51.60;;;;;;5033618;28;20099;-67
2023/04/15 11:07:33;;;;;;;5.47;2.55;;;16.80;51.70;;;;;;5038710;28;20040;-67
2023/04/15 11:10:00;;;;;;;5.43;2.40;;;16.70;51.90;;;;;;5036721;28;20044;-67
2023/04/15 11:12:36;;;;;;;6.47;2.60;;;16.60;52.00;;;;;;5040417;28;20340;-67
2023/04/15 11:15:23;;;;;;;5.10;2.42;;;16.60;52.10;;;;;;5019553;28;20031;-67
2023/04/15 11:17:50;;;;;;;5.43;2.42;;;16.60;52.10;;;;;;5036050;28;20037;-67
2023/04/15 11:20:17;;;;;;;6.55;2.97;;;16.60;52.10;;;;;;5034076;28;20037;-67
2023/04/15 11:22:53;;;;;;;5.45;2.40;;;16.80;52.00;;;;;;5038709;28;20057;-67
2023/04/15 11:25:26;;;;;;;6.32;2.67;;;16.90;51.80;;;;;;5036604;28;20041;-67
2023/04/15 11:27:53;;;;;;;5.10;2.35;;;16.90;51.80;;;;;;5035648;28;20113;-67
2023/04/15 11:30:27;;;;;;;3.95;1.83;;;16.80;51.70;;;;;;5033468;28;20032;-67
2023/04/15 11:33:01;;;;;;;4.65;1.92;;;16.70;51.40;;;;;;5037187;28;20040;-67
2023/04/15 11:35:28;;;;;;;5.68;2.05;;;16.80;51.20;;;;;;5033675;28;20029;-67
2023/04/15 11:37:54;;;;;;;3.60;1.92;;;16.90;51.10;;;;;;5034772;28;20033;-67
2023/04/15 11:40:28;;;;;;;5.07;1.83;;;17.10;50.90;;;;;;5035578;28;20048;-67
2023/04/15 11:43:06;;;;;;;3.75;1.70;;;17.30;50.60;;;;;;5035542;28;20042;-68
2023/04/15 11:45:32;;;;;;;4.35;1.90;;;17.50;50.30;;;;;;5033912;28;20018;-68
2023/04/15 11:48:09;;;;;;;3.78;1.60;;;17.60;49.90;;;;;;5032811;28;20067;-68
2023/04/15 11:50:36;;;;;;;6.10;1.58;;;17.70;49.50;;;;;;5032471;28;20037;-67
2023/04/15 11:53:06;;;;;;;3.38;1.50;;;17.60;49.40;;;;;;5034954;28;20100;-66
2023/04/15 11:55:51;;;;;;;3.38;1.40;;;17.70;49.30;;;;;;5033339;28;20055;-67
2023/04/15 11:58:22;;;;;;;5.05;1.65;;;17.80;49.00;;;;;;5031351;28;20048;-67
2023/04/15 12:00:51;;;;;;;3.95;1.50;;;17.60;49.10;;;;;;5057111;28;20033;-68
2023/04/15 12:03:24;;;;;;;8.48;2.78;;;17.60;49.20;;;;;;5043103;28;20021;-68
2023/04/15 12:06:07;;;;;;;6.35;2.75;;;17.60;49.10;;;;;;5041872;28;20021;-68
2023/04/15 12:08:54;;;;;;;6.82;2.20;;;17.50;49.00;;;;;;5056573;28;20048;-68
2023/04/15 12:11:26;;;;;;;5.85;2.13;;;17.50;49.10;;;;;;5045572;28;20036;-68
2023/04/15 12:14:02;;;;;;;4.72;1.80;;;17.50;49.10;;;;;;5054030;28;20032;-68
2023/04/15 12:16:28;;;;;;;5.25;1.60;;;17.40;49.30;;;;;;5028882;28;20060;-68
2023/04/15 12:18:59;;;;;;;5.80;2.08;;;17.40;49.30;;;;;;5039166;28;20029;-68
2023/04/15 12:21:27;;;;;;;4.53;1.77;;;17.30;49.30;;;;;;5045907;28;20053;-68
2023/04/15 12:24:00;;;;;;;3.65;1.65;;;17.30;49.30;;;;;;5037090;28;20026;-68
2023/04/15 12:26:28;;;;;;;3.72;1.60;;;17.40;49.20;;;;;;5055516;28;20028;-68
2023/04/15 12:29:07;;;;;;;4.18;1.70;;;17.50;49.20;;;;;;5056598;28;20335;-68
2023/04/15 12:31:34;;;;;;;3.13;1.50;;;17.60;49.10;;;;;;5048796;28;20147;-68
2023/04/15 12:34:00;;;;;;;3.90;1.75;;;17.60;49.10;;;;;;5036361;28;20365;-68
2023/04/15 12:36:27;;;;;;;2.50;1.30;;;17.50;49.10;;;;;;5052194;28;20040;-68
2023/04/15 12:38:53;;;;;;;3.10;1.25;;;17.50;49.20;;;;;;5056251;28;20342;-68
2023/04/15 12:41:23;;;;;;;3.38;1.42;;;17.40;49.10;;;;;;5040062;28;20462;-68
2023/04/15 12:43:49;;;;;;;3.95;1.40;;;17.50;49.10;;;;;;5035344;28;20458;-68
2023/04/15 12:46:15;;;;;;;2.70;1.25;;;17.60;49.10;;;;;;5050174;28;20112;-68
2023/04/15 12:48:41;;;;;;;4.55;1.33;;;17.60;49.00;;;;;;5056287;28;20033;-68